sensor_id;sensor_type;location;lat;lon;timestamp;temperature;humidity
2174;DHT22;1093;51.424;11.764;2022-09-16T00:00:27;13.70;1.40
2174;DHT22;1093;51.424;11.764;2022-09-16T00:02:54;13.60;1.40
2174;DHT22;1093;51.424;11.764;2022-09-16T00:05:21;13.60;1.40
2174;DHT22;1093;51.424;11.764;2022-09-16T00:07:48;13.60;1.40
2174;DHT22;1093;51.424;11.764;2022-09-16T00:10:15;13.50;1.40
2174;DHT22;1093;51.424;11.764;2022-09-16T00:12:42;13.50;1.40
2174;DHT22;1093;51.424;11.764;2022-09-16T00:15:11;13.50;1.40
2174;DHT22;1093;51.424;11.764;2022-09-16T00:17:39;13.40;1.40
2174;DHT22;1093;51.424;11.764;2022-09-16T00:20:07;13.40;1.40
2174;DHT22;1093;51.424;11.764;2022-09-16T00:22:34;13.40;1.40
2174;DHT22;1093;51.424;11.764;2022-09-16T00:25:01;13.40;1.40
2174;DHT22;1093;51.424;11.764;2022-09-16T00:27:27;13.40;1.40
2174;DHT22;1093;51.424;11.764;2022-09-16T00:29:54;13.40;1.40
2174;DHT22;1093;51.424;11.764;2022-09-16T00:32:21;13.40;1.40
2174;DHT22;1093;51.424;11.764;2022-09-16T00:34:49;13.40;1.40
2174;DHT22;1093;51.424;11.764;2022-09-16T00:37:16;13.40;1.40
2174;DHT22;1093;51.424;11.764;2022-09-16T00:39:43;13.40;1.40
2174;DHT22;1093;51.424;11.764;2022-09-16T00:42:12;13.30;1.40
2174;DHT22;1093;51.424;11.764;2022-09-16T00:44:52;13.30;1.40
2174;DHT22;1093;51.424;11.764;2022-09-16T00:47:23;13.20;1.40
2174;DHT22;1093;51.424;11.764;2022-09-16T00:49:55;13.10;1.40
2174;DHT22;1093;51.424;11.764;2022-09-16T00:52:25;13.10;1.40
2174;DHT22;1093;51.424;11.764;2022-09-16T00:54:52;13.10;1.40
2174;DHT22;1093;51.424;11.764;2022-09-16T00:57:19;13.20;1.40
2174;DHT22;1093;51.424;11.764;2022-09-16T00:59:49;13.10;1.40
2174;DHT22;1093;51.424;11.764;2022-09-16T01:02:19;13.10;1.40
2174;DHT22;1093;51.424;11.764;2022-09-16T01:04:53;13.00;1.40
2174;DHT22;1093;51.424;11.764;2022-09-16T01:07:26;13.00;1.40
2174;DHT22;1093;51.424;11.764;2022-09-16T01:09:54;13.00;1.40
2174;DHT22;1093;51.424;11.764;2022-09-16T01:12:21;13.00;1.40
2174;DHT22;1093;51.424;11.764;2022-09-16T01:14:48;13.00;1.40
2174;DHT22;1093;51.424;11.764;2022-09-16T01:17:29;13.00;1.40
2174;DHT22;1093;51.424;11.764;2022-09-16T01:20:33;13.00;1.40
2174;DHT22;1093;51.424;11.764;2022-09-16T01:23:20;13.00;1.40
2174;DHT22;1093;51.424;11.764;2022-09-16T01:26:08;13.00;1.40
2174;DHT22;1093;51.424;11.764;2022-09-16T01:31:42;13.00;1.40
2174;DHT22;1093;51.424;11.764;2022-09-16T01:34:18;13.00;1.40
2174;DHT22;1093;51.424;11.764;2022-09-16T01:36:51;13.00;1.40
2174;DHT22;1093;51.424;11.764;2022-09-16T01:39:28;13.00;1.40
2174;DHT22;1093;51.424;11.764;2022-09-16T01:42:07;13.00;1.40
2174;DHT22;1093;51.424;11.764;2022-09-16T01:44:44;13.00;1.40
2174;DHT22;1093;51.424;11.764;2022-09-16T01:47:18;13.00;1.40
2174;DHT22;1093;51.424;11.764;2022-09-16T01:49:55;12.90;1.40
2174;DHT22;1093;51.424;11.764;2022-09-16T01:52:31;13.00;1.40
2174;DHT22;1093;51.424;11.764;2022-09-16T01:55:02;13.00;1.40
2174;DHT22;1093;51.424;11.764;2022-09-16T01:57:35;12.90;1.40
2174;DHT22;1093;51.424;11.764;2022-09-16T02:00:06;12.90;1.40
2174;DHT22;1093;51.424;11.764;2022-09-16T02:02:38;12.90;1.40
2174;DHT22;1093;51.424;11.764;2022-09-16T02:05:09;12.90;1.40
2174;DHT22;1093;51.424;11.764;2022-09-16T02:07:40;12.90;1.40
2174;DHT22;1093;51.424;11.764;2022-09-16T02:10:14;12.80;1.40
2174;DHT22;1093;51.424;11.764;2022-09-16T02:12:43;12.80;1.40
2174;DHT22;1093;51.424;11.764;2022-09-16T02:15:15;12.80;1.40
2174;DHT22;1093;51.424;11.764;2022-09-16T02:17:52;12.80;1.40
2174;DHT22;1093;51.424;11.764;2022-09-16T02:20:24;12.80;1.40
2174;DHT22;1093;51.424;11.764;2022-09-16T02:22:56;12.80;1.40
2174;DHT22;1093;51.424;11.764;2022-09-16T02:25:25;12.80;1.40
2174;DHT22;1093;51.424;11.764;2022-09-16T02:27:52;12.80;1.40
2174;DHT22;1093;51.424;11.764;2022-09-16T02:30:21;12.80;1.40
2174;DHT22;1093;51.424;11.764;2022-09-16T02:32:53;12.70;1.40
2174;DHT22;1093;51.424;11.764;2022-09-16T02:35:23;12.80;1.40
2174;DHT22;1093;51.424;11.764;2022-09-16T02:37:56;12.70;1.40
2174;DHT22;1093;51.424;11.764;2022-09-16T02:40:25;12.70;1.40
2174;DHT22;1093;51.424;11.764;2022-09-16T02:42:53;12.80;1.40
2174;DHT22;1093;51.424;11.764;2022-09-16T02:45:24;12.70;1.40
2174;DHT22;1093;51.424;11.764;2022-09-16T02:47:59;12.70;1.40
2174;DHT22;1093;51.424;11.764;2022-09-16T02:50:31;12.70;1.40
2174;DHT22;1093;51.424;11.764;2022-09-16T02:53:01;12.70;1.40
2174;DHT22;1093;51.424;11.764;2022-09-16T02:55:39;12.60;1.40
2174;DHT22;1093;51.424;11.764;2022-09-16T02:58:09;12.60;1.40
2174;DHT22;1093;51.424;11.764;2022-09-16T03:00:40;12.50;1.40
2174;DHT22;1093;51.424;11.764;2022-09-16T03:03:10;12.50;1.40
2174;DHT22;1093;51.424;11.764;2022-09-16T03:06:02;12.50;1.40
2174;DHT22;1093;51.424;11.764;2022-09-16T03:08:32;12.50;1.40
2174;DHT22;1093;51.424;11.764;2022-09-16T03:11:04;12.50;1.40
2174;DHT22;1093;51.424;11.764;2022-09-16T03:13:39;12.50;1.40
2174;DHT22;1093;51.424;11.764;2022-09-16T03:16:11;12.50;1.40
2174;DHT22;1093;51.424;11.764;2022-09-16T03:18:56;12.40;1.40
2174;DHT22;1093;51.424;11.764;2022-09-16T03:21:31;12.40;1.40
2174;DHT22;1093;51.424;11.764;2022-09-16T03:24:07;12.50;1.40
2174;DHT22;1093;51.424;11.764;2022-09-16T03:26:43;12.40;1.40
2174;DHT22;1093;51.424;11.764;2022-09-16T03:29:17;12.30;1.40
2174;DHT22;1093;51.424;11.764;2022-09-16T03:31:47;12.40;1.40
2174;DHT22;1093;51.424;11.764;2022-09-16T03:34:19;12.40;1.40
2174;DHT22;1093;51.424;11.764;2022-09-16T03:36:51;12.30;1.40
2174;DHT22;1093;51.424;11.764;2022-09-16T03:39:20;12.40;1.40
2174;DHT22;1093;51.424;11.764;2022-09-16T03:41:47;12.30;1.40
2174;DHT22;1093;51.424;11.764;2022-09-16T03:44:14;12.30;1.40
2174;DHT22;1093;51.424;11.764;2022-09-16T03:46:42;12.40;1.40
2174;DHT22;1093;51.424;11.764;2022-09-16T03:49:09;12.40;1.40
2174;DHT22;1093;51.424;11.764;2022-09-16T03:51:37;12.40;1.40
2174;DHT22;1093;51.424;11.764;2022-09-16T03:54:04;12.40;1.40
2174;DHT22;1093;51.424;11.764;2022-09-16T03:56:31;12.40;1.40
2174;DHT22;1093;51.424;11.764;2022-09-16T03:58:57;12.40;1.40
2174;DHT22;1093;51.424;11.764;2022-09-16T04:01:24;12.30;1.40
2174;DHT22;1093;51.424;11.764;2022-09-16T04:03:51;12.30;1.40
2174;DHT22;1093;51.424;11.764;2022-09-16T04:06:17;12.30;1.40
2174;DHT22;1093;51.424;11.764;2022-09-16T04:08:46;12.20;1.40
2174;DHT22;1093;51.424;11.764;2022-09-16T04:11:15;12.20;1.40
2174;DHT22;1093;51.424;11.764;2022-09-16T04:13:41;12.20;1.40
2174;DHT22;1093;51.424;11.764;2022-09-16T04:16:08;12.20;1.40
2174;DHT22;1093;51.424;11.764;2022-09-16T04:18:35;12.20;1.40
2174;DHT22;1093;51.424;11.764;2022-09-16T04:21:02;12.20;1.40
2174;DHT22;1093;51.424;11.764;2022-09-16T04:23:30;12.20;1.40
2174;DHT22;1093;51.424;11.764;2022-09-16T04:26:00;12.20;1.40
2174;DHT22;1093;51.424;11.764;2022-09-16T04:28:28;12.30;1.40
2174;DHT22;1093;51.424;11.764;2022-09-16T04:30:59;12.20;1.40
2174;DHT22;1093;51.424;11.764;2022-09-16T04:33:27;12.20;1.40
2174;DHT22;1093;51.424;11.764;2022-09-16T04:36:01;12.20;1.40
2174;DHT22;1093;51.424;11.764;2022-09-16T04:38:28;12.30;1.40
2174;DHT22;1093;51.424;11.764;2022-09-16T04:41:00;12.20;1.40
2174;DHT22;1093;51.424;11.764;2022-09-16T04:43:28;12.20;1.40
2174;DHT22;1093;51.424;11.764;2022-09-16T04:45:55;12.20;1.40
2174;DHT22;1093;51.424;11.764;2022-09-16T04:48:21;12.20;1.40
2174;DHT22;1093;51.424;11.764;2022-09-16T04:50:49;12.10;1.40
2174;DHT22;1093;51.424;11.764;2022-09-16T04:53:16;12.00;1.40
2174;DHT22;1093;51.424;11.764;2022-09-16T04:55:43;12.10;1.40
2174;DHT22;1093;51.424;11.764;2022-09-16T04:58:11;12.00;1.40
2174;DHT22;1093;51.424;11.764;2022-09-16T05:00:38;12.00;1.40
2174;DHT22;1093;51.424;11.764;2022-09-16T05:03:06;12.00;1.40
2174;DHT22;1093;51.424;11.764;2022-09-16T05:05:32;12.00;1.40
2174;DHT22;1093;51.424;11.764;2022-09-16T05:07:59;11.90;1.40
2174;DHT22;1093;51.424;11.764;2022-09-16T05:10:26;11.90;1.40
2174;DHT22;1093;51.424;11.764;2022-09-16T05:12:53;12.00;1.40
2174;DHT22;1093;51.424;11.764;2022-09-16T05:15:21;11.90;1.40
2174;DHT22;1093;51.424;11.764;2022-09-16T05:17:48;11.90;1.40
2174;DHT22;1093;51.424;11.764;2022-09-16T05:20:15;11.90;1.40
2174;DHT22;1093;51.424;11.764;2022-09-16T05:22:43;11.90;1.40
2174;DHT22;1093;51.424;11.764;2022-09-16T05:25:10;11.90;1.40
2174;DHT22;1093;51.424;11.764;2022-09-16T05:27:36;11.80;1.40
2174;DHT22;1093;51.424;11.764;2022-09-16T05:30:04;11.90;1.40
2174;DHT22;1093;51.424;11.764;2022-09-16T05:32:32;11.80;1.40
2174;DHT22;1093;51.424;11.764;2022-09-16T05:34:59;11.90;1.40
2174;DHT22;1093;51.424;11.764;2022-09-16T05:37:26;11.80;1.40
2174;DHT22;1093;51.424;11.764;2022-09-16T05:39:52;11.80;1.40
2174;DHT22;1093;51.424;11.764;2022-09-16T05:42:19;11.80;1.40
2174;DHT22;1093;51.424;11.764;2022-09-16T05:44:46;11.80;1.40
2174;DHT22;1093;51.424;11.764;2022-09-16T05:47:13;11.90;1.40
2174;DHT22;1093;51.424;11.764;2022-09-16T05:49:41;11.90;1.40
2174;DHT22;1093;51.424;11.764;2022-09-16T05:52:08;11.90;1.40
2174;DHT22;1093;51.424;11.764;2022-09-16T05:54:34;11.90;1.40
2174;DHT22;1093;51.424;11.764;2022-09-16T05:57:01;12.00;1.40
2174;DHT22;1093;51.424;11.764;2022-09-16T05:59:29;12.00;1.40
2174;DHT22;1093;51.424;11.764;2022-09-16T06:01:55;12.10;1.40
2174;DHT22;1093;51.424;11.764;2022-09-16T06:04:22;12.10;1.40
2174;DHT22;1093;51.424;11.764;2022-09-16T06:06:50;12.20;1.40
2174;DHT22;1093;51.424;11.764;2022-09-16T06:09:19;12.20;1.40
2174;DHT22;1093;51.424;11.764;2022-09-16T06:11:47;12.30;1.40
2174;DHT22;1093;51.424;11.764;2022-09-16T06:14:16;12.40;1.40
2174;DHT22;1093;51.424;11.764;2022-09-16T06:16:43;12.50;1.40
2174;DHT22;1093;51.424;11.764;2022-09-16T06:19:12;12.60;1.40
2174;DHT22;1093;51.424;11.764;2022-09-16T06:21:39;12.70;1.40
2174;DHT22;1093;51.424;11.764;2022-09-16T06:24:09;12.70;1.40
2174;DHT22;1093;51.424;11.764;2022-09-16T06:26:38;12.60;1.40
2174;DHT22;1093;51.424;11.764;2022-09-16T06:29:05;12.70;1.40
2174;DHT22;1093;51.424;11.764;2022-09-16T06:31:32;12.70;1.40
2174;DHT22;1093;51.424;11.764;2022-09-16T06:34:00;12.70;1.40
2174;DHT22;1093;51.424;11.764;2022-09-16T06:36:29;12.80;1.40
2174;DHT22;1093;51.424;11.764;2022-09-16T06:38:56;12.80;1.40
2174;DHT22;1093;51.424;11.764;2022-09-16T06:41:24;12.90;1.40
2174;DHT22;1093;51.424;11.764;2022-09-16T06:43:51;13.00;1.40
2174;DHT22;1093;51.424;11.764;2022-09-16T06:46:20;13.10;1.40
2174;DHT22;1093;51.424;11.764;2022-09-16T06:48:48;13.10;1.40
2174;DHT22;1093;51.424;11.764;2022-09-16T06:51:17;13.10;1.40
2174;DHT22;1093;51.424;11.764;2022-09-16T06:53:44;13.10;1.40
2174;DHT22;1093;51.424;11.764;2022-09-16T06:56:12;13.20;1.40
2174;DHT22;1093;51.424;11.764;2022-09-16T06:58:42;13.20;1.40
2174;DHT22;1093;51.424;11.764;2022-09-16T07:01:10;13.20;1.40
2174;DHT22;1093;51.424;11.764;2022-09-16T07:03:38;13.20;1.40
2174;DHT22;1093;51.424;11.764;2022-09-16T07:06:05;13.20;1.40
2174;DHT22;1093;51.424;11.764;2022-09-16T07:08:34;13.30;1.40
2174;DHT22;1093;51.424;11.764;2022-09-16T07:11:03;13.20;1.40
2174;DHT22;1093;51.424;11.764;2022-09-16T07:13:30;13.30;1.40
2174;DHT22;1093;51.424;11.764;2022-09-16T07:16:00;13.30;1.40
2174;DHT22;1093;51.424;11.764;2022-09-16T07:18:27;13.30;1.40
2174;DHT22;1093;51.424;11.764;2022-09-16T07:21:00;13.40;1.40
2174;DHT22;1093;51.424;11.764;2022-09-16T07:23:28;13.40;1.40
2174;DHT22;1093;51.424;11.764;2022-09-16T07:25:59;13.40;1.40
2174;DHT22;1093;51.424;11.764;2022-09-16T07:28:27;13.40;1.40
2174;DHT22;1093;51.424;11.764;2022-09-16T07:30:54;13.40;1.40
2174;DHT22;1093;51.424;11.764;2022-09-16T07:33:22;13.50;1.40
2174;DHT22;1093;51.424;11.764;2022-09-16T07:35:49;13.50;1.40
2174;DHT22;1093;51.424;11.764;2022-09-16T07:38:16;13.50;1.40
2174;DHT22;1093;51.424;11.764;2022-09-16T07:40:42;13.60;1.40
2174;DHT22;1093;51.424;11.764;2022-09-16T07:43:09;13.70;1.40
2174;DHT22;1093;51.424;11.764;2022-09-16T07:45:36;13.70;1.40
2174;DHT22;1093;51.424;11.764;2022-09-16T07:48:03;13.80;1.40
2174;DHT22;1093;51.424;11.764;2022-09-16T07:50:31;13.90;1.40
2174;DHT22;1093;51.424;11.764;2022-09-16T07:52:57;13.90;1.40
2174;DHT22;1093;51.424;11.764;2022-09-16T07:55:24;13.90;1.40
2174;DHT22;1093;51.424;11.764;2022-09-16T07:57:51;14.00;1.40
2174;DHT22;1093;51.424;11.764;2022-09-16T08:00:19;14.00;1.40
2174;DHT22;1093;51.424;11.764;2022-09-16T08:02:45;14.10;1.40
2174;DHT22;1093;51.424;11.764;2022-09-16T08:05:12;14.30;1.40
2174;DHT22;1093;51.424;11.764;2022-09-16T08:07:41;14.40;1.40
2174;DHT22;1093;51.424;11.764;2022-09-16T08:10:08;14.50;1.40
2174;DHT22;1093;51.424;11.764;2022-09-16T08:12:35;14.60;1.40
2174;DHT22;1093;51.424;11.764;2022-09-16T08:15:02;14.70;1.40
2174;DHT22;1093;51.424;11.764;2022-09-16T08:17:28;14.80;1.40
2174;DHT22;1093;51.424;11.764;2022-09-16T08:19:55;14.80;1.40
2174;DHT22;1093;51.424;11.764;2022-09-16T08:22:22;14.90;1.40
2174;DHT22;1093;51.424;11.764;2022-09-16T08:24:51;14.90;1.40
2174;DHT22;1093;51.424;11.764;2022-09-16T08:27:18;14.90;1.40
2174;DHT22;1093;51.424;11.764;2022-09-16T08:29:45;14.90;1.40
2174;DHT22;1093;51.424;11.764;2022-09-16T08:32:11;14.90;1.40
2174;DHT22;1093;51.424;11.764;2022-09-16T08:34:38;14.90;1.40
2174;DHT22;1093;51.424;11.764;2022-09-16T08:37:05;14.80;1.40
2174;DHT22;1093;51.424;11.764;2022-09-16T08:39:32;14.80;1.40
2174;DHT22;1093;51.424;11.764;2022-09-16T08:42:20;14.70;1.40
2174;DHT22;1093;51.424;11.764;2022-09-16T08:44:53;14.70;1.40
2174;DHT22;1093;51.424;11.764;2022-09-16T08:47:33;14.70;1.40
2174;DHT22;1093;51.424;11.764;2022-09-16T08:50:04;14.60;1.40
2174;DHT22;1093;51.424;11.764;2022-09-16T08:52:33;14.70;1.40
2174;DHT22;1093;51.424;11.764;2022-09-16T08:55:04;14.70;1.40
2174;DHT22;1093;51.424;11.764;2022-09-16T08:57:38;14.70;1.40
2174;DHT22;1093;51.424;11.764;2022-09-16T09:00:10;14.80;1.40
2174;DHT22;1093;51.424;11.764;2022-09-16T09:02:41;14.80;1.40
2174;DHT22;1093;51.424;11.764;2022-09-16T09:05:16;14.90;1.40
2174;DHT22;1093;51.424;11.764;2022-09-16T09:08:02;15.00;1.40
2174;DHT22;1093;51.424;11.764;2022-09-16T09:10:38;15.20;1.40
2174;DHT22;1093;51.424;11.764;2022-09-16T09:13:12;15.20;1.40
2174;DHT22;1093;51.424;11.764;2022-09-16T09:15:49;15.30;1.40
2174;DHT22;1093;51.424;11.764;2022-09-16T09:18:26;15.40;1.40
2174;DHT22;1093;51.424;11.764;2022-09-16T09:21:02;15.40;1.40
2174;DHT22;1093;51.424;11.764;2022-09-16T09:23:46;15.50;1.40
2174;DHT22;1093;51.424;11.764;2022-09-16T09:26:19;15.50;1.40
2174;DHT22;1093;51.424;11.764;2022-09-16T09:29:15;15.60;1.40
2174;DHT22;1093;51.424;11.764;2022-09-16T09:31:49;15.80;1.40
2174;DHT22;1093;51.424;11.764;2022-09-16T09:34:31;15.90;1.40
2174;DHT22;1093;51.424;11.764;2022-09-16T09:37:14;16.00;1.40
2174;DHT22;1093;51.424;11.764;2022-09-16T09:39:52;16.00;1.40
2174;DHT22;1093;51.424;11.764;2022-09-16T09:42:26;16.10;1.40
2174;DHT22;1093;51.424;11.764;2022-09-16T09:44:59;16.10;1.40
2174;DHT22;1093;51.424;11.764;2022-09-16T09:47:32;16.30;1.40
2174;DHT22;1093;51.424;11.764;2022-09-16T09:50:08;16.40;1.40
2174;DHT22;1093;51.424;11.764;2022-09-16T09:52:42;16.50;1.40
2174;DHT22;1093;51.424;11.764;2022-09-16T09:55:15;16.60;1.40
2174;DHT22;1093;51.424;11.764;2022-09-16T09:57:54;16.60;1.40
2174;DHT22;1093;51.424;11.764;2022-09-16T10:00:24;16.70;1.40
2174;DHT22;1093;51.424;11.764;2022-09-16T10:02:51;16.80;1.40
2174;DHT22;1093;51.424;11.764;2022-09-16T10:05:22;16.90;1.40
2174;DHT22;1093;51.424;11.764;2022-09-16T10:07:50;17.00;1.40
2174;DHT22;1093;51.424;11.764;2022-09-16T10:10:20;17.10;1.40
2174;DHT22;1093;51.424;11.764;2022-09-16T10:12:47;17.20;1.40
2174;DHT22;1093;51.424;11.764;2022-09-16T10:15:21;17.20;1.40
2174;DHT22;1093;51.424;11.764;2022-09-16T10:17:50;17.20;1.40
2174;DHT22;1093;51.424;11.764;2022-09-16T10:20:25;17.20;1.40
2174;DHT22;1093;51.424;11.764;2022-09-16T10:22:59;17.30;1.40
2174;DHT22;1093;51.424;11.764;2022-09-16T10:25:27;17.30;1.40
2174;DHT22;1093;51.424;11.764;2022-09-16T10:27:57;17.30;1.40
2174;DHT22;1093;51.424;11.764;2022-09-16T10:30:26;17.20;1.40
2174;DHT22;1093;51.424;11.764;2022-09-16T10:32:56;17.20;1.40
2174;DHT22;1093;51.424;11.764;2022-09-16T10:35:26;17.20;1.40
2174;DHT22;1093;51.424;11.764;2022-09-16T10:37:55;17.20;1.40
2174;DHT22;1093;51.424;11.764;2022-09-16T10:40:23;17.30;1.40
2174;DHT22;1093;51.424;11.764;2022-09-16T10:42:52;17.20;1.40
2174;DHT22;1093;51.424;11.764;2022-09-16T10:45:24;17.10;1.40
2174;DHT22;1093;51.424;11.764;2022-09-16T10:47:55;17.10;1.40
2174;DHT22;1093;51.424;11.764;2022-09-16T10:50:23;17.10;1.40
2174;DHT22;1093;51.424;11.764;2022-09-16T10:52:51;17.10;1.40
2174;DHT22;1093;51.424;11.764;2022-09-16T10:55:24;17.10;1.40
2174;DHT22;1093;51.424;11.764;2022-09-16T10:57:52;17.10;1.40
2174;DHT22;1093;51.424;11.764;2022-09-16T11:00:20;17.20;1.40
2174;DHT22;1093;51.424;11.764;2022-09-16T11:03:11;17.30;1.40
2174;DHT22;1093;51.424;11.764;2022-09-16T11:05:48;17.30;1.40
2174;DHT22;1093;51.424;11.764;2022-09-16T11:08:28;17.40;1.40
2174;DHT22;1093;51.424;11.764;2022-09-16T11:11:04;17.40;1.40
2174;DHT22;1093;51.424;11.764;2022-09-16T11:13:40;17.40;1.40
2174;DHT22;1093;51.424;11.764;2022-09-16T11:16:27;17.40;1.40
2174;DHT22;1093;51.424;11.764;2022-09-16T11:19:03;17.30;1.40
2174;DHT22;1093;51.424;11.764;2022-09-16T11:21:44;17.20;1.40
2174;DHT22;1093;51.424;11.764;2022-09-16T11:24:30;17.10;1.40
2174;DHT22;1093;51.424;11.764;2022-09-16T11:27:07;16.90;1.40
2174;DHT22;1093;51.424;11.764;2022-09-16T11:30:00;16.70;1.40
2174;DHT22;1093;51.424;11.764;2022-09-16T11:32:37;16.50;1.40
2174;DHT22;1093;51.424;11.764;2022-09-16T11:35:28;16.30;1.40
2174;DHT22;1093;51.424;11.764;2022-09-16T11:38:00;16.10;1.40
2174;DHT22;1093;51.424;11.764;2022-09-16T11:40:33;16.00;1.40
2174;DHT22;1093;51.424;11.764;2022-09-16T11:43:23;15.90;1.40
2174;DHT22;1093;51.424;11.764;2022-09-16T11:45:59;15.80;1.40
2174;DHT22;1093;51.424;11.764;2022-09-16T11:48:37;15.90;1.40
2174;DHT22;1093;51.424;11.764;2022-09-16T11:51:15;15.80;1.40
2174;DHT22;1093;51.424;11.764;2022-09-16T11:54:08;15.80;1.40
2174;DHT22;1093;51.424;11.764;2022-09-16T11:56:42;15.80;1.40
2174;DHT22;1093;51.424;11.764;2022-09-16T11:59:14;15.80;1.40
2174;DHT22;1093;51.424;11.764;2022-09-16T12:01:46;15.90;1.40
2174;DHT22;1093;51.424;11.764;2022-09-16T12:04:20;15.90;1.40
2174;DHT22;1093;51.424;11.764;2022-09-16T12:06:55;16.00;1.40
2174;DHT22;1093;51.424;11.764;2022-09-16T12:09:35;16.10;1.40
2174;DHT22;1093;51.424;11.764;2022-09-16T12:12:09;16.10;1.40
2174;DHT22;1093;51.424;11.764;2022-09-16T12:14:40;16.20;1.40
2174;DHT22;1093;51.424;11.764;2022-09-16T12:17:12;16.30;1.40
2174;DHT22;1093;51.424;11.764;2022-09-16T12:19:45;16.40;1.40
2174;DHT22;1093;51.424;11.764;2022-09-16T12:22:18;16.50;1.40
2174;DHT22;1093;51.424;11.764;2022-09-16T12:24:50;16.60;1.40
2174;DHT22;1093;51.424;11.764;2022-09-16T12:27:31;16.70;1.40
2174;DHT22;1093;51.424;11.764;2022-09-16T12:30:04;16.80;1.40
2174;DHT22;1093;51.424;11.764;2022-09-16T12:32:36;16.90;1.40
2174;DHT22;1093;51.424;11.764;2022-09-16T12:35:11;17.00;1.40
2174;DHT22;1093;51.424;11.764;2022-09-16T12:37:45;16.90;1.40
2174;DHT22;1093;51.424;11.764;2022-09-16T12:40:16;17.00;1.40
2174;DHT22;1093;51.424;11.764;2022-09-16T12:43:25;17.10;1.40
2174;DHT22;1093;51.424;11.764;2022-09-16T12:46:21;17.20;1.40
2174;DHT22;1093;51.424;11.764;2022-09-16T12:52:19;17.30;1.40
2174;DHT22;1093;51.424;11.764;2022-09-16T12:58:17;17.40;1.40
2174;DHT22;1093;51.424;11.764;2022-09-16T13:00:54;17.40;1.40
2174;DHT22;1093;51.424;11.764;2022-09-16T13:03:26;17.40;1.40
2174;DHT22;1093;51.424;11.764;2022-09-16T13:05:54;17.50;1.40
2174;DHT22;1093;51.424;11.764;2022-09-16T13:08:25;17.70;1.40
2174;DHT22;1093;51.424;11.764;2022-09-16T13:10:57;17.70;1.40
2174;DHT22;1093;51.424;11.764;2022-09-16T13:13:31;17.70;1.40
2174;DHT22;1093;51.424;11.764;2022-09-16T13:16:01;17.70;1.40
2174;DHT22;1093;51.424;11.764;2022-09-16T13:18:39;17.70;1.40
2174;DHT22;1093;51.424;11.764;2022-09-16T13:21:15;17.80;1.40
2174;DHT22;1093;51.424;11.764;2022-09-16T13:23:46;17.80;1.40
2174;DHT22;1093;51.424;11.764;2022-09-16T13:26:14;17.90;1.40
2174;DHT22;1093;51.424;11.764;2022-09-16T13:28:44;17.90;1.40
2174;DHT22;1093;51.424;11.764;2022-09-16T13:31:18;18.00;1.40
2174;DHT22;1093;51.424;11.764;2022-09-16T13:33:47;18.10;1.40
2174;DHT22;1093;51.424;11.764;2022-09-16T13:36:28;18.10;1.40
2174;DHT22;1093;51.424;11.764;2022-09-16T13:38:56;18.20;1.40
2174;DHT22;1093;51.424;11.764;2022-09-16T13:41:34;18.20;1.40
2174;DHT22;1093;51.424;11.764;2022-09-16T13:44:25;18.30;1.40
2174;DHT22;1093;51.424;11.764;2022-09-16T13:46:52;18.40;1.40
2174;DHT22;1093;51.424;11.764;2022-09-16T13:49:21;18.40;1.40
2174;DHT22;1093;51.424;11.764;2022-09-16T13:51:49;18.50;1.40
2174;DHT22;1093;51.424;11.764;2022-09-16T13:54:26;18.50;1.40
2174;DHT22;1093;51.424;11.764;2022-09-16T13:57:05;18.60;1.40
2174;DHT22;1093;51.424;11.764;2022-09-16T13:59:44;18.70;1.40
2174;DHT22;1093;51.424;11.764;2022-09-16T14:02:16;18.70;1.40
2174;DHT22;1093;51.424;11.764;2022-09-16T14:05:02;18.70;1.40
2174;DHT22;1093;51.424;11.764;2022-09-16T14:07:41;18.70;1.40
2174;DHT22;1093;51.424;11.764;2022-09-16T14:10:16;18.70;1.40
2174;DHT22;1093;51.424;11.764;2022-09-16T14:12:52;18.80;1.40
2174;DHT22;1093;51.424;11.764;2022-09-16T14:15:23;18.80;1.40
2174;DHT22;1093;51.424;11.764;2022-09-16T14:17:54;18.80;1.40
2174;DHT22;1093;51.424;11.764;2022-09-16T14:20:23;18.90;1.40
2174;DHT22;1093;51.424;11.764;2022-09-16T14:22:59;18.90;1.40
2174;DHT22;1093;51.424;11.764;2022-09-16T14:25:28;18.90;1.40
2174;DHT22;1093;51.424;11.764;2022-09-16T14:28:14;18.90;1.40
2174;DHT22;1093;51.424;11.764;2022-09-16T14:30:49;18.90;1.40
2174;DHT22;1093;51.424;11.764;2022-09-16T14:33:20;19.00;1.40
2174;DHT22;1093;51.424;11.764;2022-09-16T14:35:48;19.00;1.40
2174;DHT22;1093;51.424;11.764;2022-09-16T14:38:18;19.00;1.40
2174;DHT22;1093;51.424;11.764;2022-09-16T14:40:45;18.90;1.40
2174;DHT22;1093;51.424;11.764;2022-09-16T14:43:14;18.90;1.40
2174;DHT22;1093;51.424;11.764;2022-09-16T14:45:47;18.90;1.40
2174;DHT22;1093;51.424;11.764;2022-09-16T14:48:16;18.90;1.40
2174;DHT22;1093;51.424;11.764;2022-09-16T14:50:46;18.90;1.40
2174;DHT22;1093;51.424;11.764;2022-09-16T14:53:25;18.90;1.40
2174;DHT22;1093;51.424;11.764;2022-09-16T14:55:52;18.90;1.40
2174;DHT22;1093;51.424;11.764;2022-09-16T14:58:19;19.00;1.40
2174;DHT22;1093;51.424;11.764;2022-09-16T15:00:50;19.00;1.40
2174;DHT22;1093;51.424;11.764;2022-09-16T15:03:24;19.00;1.40
2174;DHT22;1093;51.424;11.764;2022-09-16T15:05:54;18.90;1.40
2174;DHT22;1093;51.424;11.764;2022-09-16T15:08:26;19.00;1.40
2174;DHT22;1093;51.424;11.764;2022-09-16T15:10:56;18.90;1.40
2174;DHT22;1093;51.424;11.764;2022-09-16T15:13:25;19.00;1.40
2174;DHT22;1093;51.424;11.764;2022-09-16T15:15:57;19.00;1.40
2174;DHT22;1093;51.424;11.764;2022-09-16T15:18:26;19.00;1.40
2174;DHT22;1093;51.424;11.764;2022-09-16T15:21:00;19.00;1.40
2174;DHT22;1093;51.424;11.764;2022-09-16T15:23:28;19.00;1.40
2174;DHT22;1093;51.424;11.764;2022-09-16T15:25:57;19.00;1.40
2174;DHT22;1093;51.424;11.764;2022-09-16T15:28:25;19.00;1.40
2174;DHT22;1093;51.424;11.764;2022-09-16T15:30:54;18.90;1.40
2174;DHT22;1093;51.424;11.764;2022-09-16T15:33:23;18.90;1.40
2174;DHT22;1093;51.424;11.764;2022-09-16T15:35:50;18.90;1.40
2174;DHT22;1093;51.424;11.764;2022-09-16T15:38:20;18.80;1.40
2174;DHT22;1093;51.424;11.764;2022-09-16T15:40:47;18.70;1.40
2174;DHT22;1093;51.424;11.764;2022-09-16T15:43:25;18.70;1.40
2174;DHT22;1093;51.424;11.764;2022-09-16T15:46:00;18.70;1.40
2174;DHT22;1093;51.424;11.764;2022-09-16T15:48:30;18.70;1.40
2174;DHT22;1093;51.424;11.764;2022-09-16T15:51:02;18.60;1.40
2174;DHT22;1093;51.424;11.764;2022-09-16T15:53:37;18.60;1.40
2174;DHT22;1093;51.424;11.764;2022-09-16T15:56:08;18.50;1.40
2174;DHT22;1093;51.424;11.764;2022-09-16T15:58:44;18.50;1.40
2174;DHT22;1093;51.424;11.764;2022-09-16T16:01:15;18.30;1.40
2174;DHT22;1093;51.424;11.764;2022-09-16T16:03:52;18.30;1.40
2174;DHT22;1093;51.424;11.764;2022-09-16T16:06:21;18.20;1.40
2174;DHT22;1093;51.424;11.764;2022-09-16T16:09:34;18.10;1.40
2174;DHT22;1093;51.424;11.764;2022-09-16T16:12:04;18.10;1.40
2174;DHT22;1093;51.424;11.764;2022-09-16T16:14:32;18.00;1.40
2174;DHT22;1093;51.424;11.764;2022-09-16T16:17:02;17.90;1.40
2174;DHT22;1093;51.424;11.764;2022-09-16T16:19:30;17.80;1.40
2174;DHT22;1093;51.424;11.764;2022-09-16T16:21:57;17.80;1.40
2174;DHT22;1093;51.424;11.764;2022-09-16T16:24:25;17.80;1.40
2174;DHT22;1093;51.424;11.764;2022-09-16T16:26:53;17.80;1.40
2174;DHT22;1093;51.424;11.764;2022-09-16T16:29:19;17.80;1.40
2174;DHT22;1093;51.424;11.764;2022-09-16T16:32:02;17.80;1.40
2174;DHT22;1093;51.424;11.764;2022-09-16T16:34:31;17.90;1.40
2174;DHT22;1093;51.424;11.764;2022-09-16T16:36:58;17.90;1.40
2174;DHT22;1093;51.424;11.764;2022-09-16T16:39:25;17.90;1.40